createdAt,value
2022-12-28T15:18:13.419Z,13.78
2022-12-28T15:18:22.171Z,14.08
2022-12-28T15:18:30.924Z,14.39
2022-12-28T15:18:46.460Z,14.62
2022-12-28T15:18:47.431Z,14.84
2022-12-28T15:18:55.670Z,15.07
2022-12-28T15:19:04.075Z,15.32
2022-12-28T15:19:12.419Z,15.60
2022-12-28T15:19:20.848Z,15.90
2022-12-28T15:19:29.173Z,16.20
2022-12-28T15:19:37.566Z,16.52
2022-12-28T15:19:45.900Z,16.85
2022-12-28T15:19:54.266Z,17.17
2022-12-28T15:20:02.720Z,17.49
2022-12-28T15:20:11.017Z,17.80
2022-12-28T15:20:19.515Z,18.11
2022-12-28T15:20:27.766Z,18.41
2022-12-28T15:20:36.273Z,18.70
2022-12-28T15:20:44.543Z,18.99
2022-12-28T15:20:52.996Z,19.26
2022-12-28T15:21:01.290Z,19.53
2022-12-28T15:21:09.686Z,19.78
2022-12-28T15:21:18.046Z,20.03
2022-12-28T15:21:26.444Z,20.26
2022-12-28T15:21:34.787Z,20.49
2022-12-28T15:21:43.164Z,20.71
2022-12-28T15:21:51.614Z,20.92
2022-12-28T15:21:59.946Z,21.12
2022-12-28T15:22:08.383Z,21.31
2022-12-28T15:22:16.689Z,21.50
2022-12-28T15:22:33.435Z,21.85
2022-12-28T15:22:41.953Z,22.02
2022-12-28T15:22:50.210Z,22.18
2022-12-28T15:22:58.582Z,22.33
2022-12-28T15:23:06.933Z,22.47
2022-12-28T15:23:23.693Z,22.75
2022-12-28T15:23:32.062Z,22.88
2022-12-28T15:23:40.437Z,23.01
2022-12-28T15:23:48.833Z,23.13
2022-12-28T15:23:57.293Z,23.26
2022-12-28T15:24:16.775Z,23.48
2022-12-28T15:24:23.682Z,23.58
2022-12-28T15:24:34.051Z,23.69
2022-12-28T15:24:39.081Z,23.79
2022-12-28T15:24:47.529Z,23.88
2022-12-28T15:25:04.233Z,24.07
2022-12-28T15:25:12.582Z,24.15
2022-12-28T15:25:20.985Z,24.24
2022-12-28T15:25:29.327Z,24.32
2022-12-28T15:25:37.733Z,24.41
2022-12-28T15:25:54.478Z,24.56
2022-12-28T15:26:03.007Z,24.63
2022-12-28T15:26:11.231Z,24.71
2022-12-28T15:26:19.728Z,24.78
2022-12-28T15:26:28.048Z,24.84
2022-12-28T15:26:36.476Z,24.91
2022-12-28T15:26:53.129Z,25.03
2022-12-28T15:27:01.509Z,25.09
2022-12-28T15:27:09.846Z,25.15
2022-12-28T15:27:18.249Z,25.21
2022-12-28T15:27:26.623Z,25.27
2022-12-28T15:27:43.371Z,25.37
2022-12-28T15:27:51.845Z,25.42
2022-12-28T15:28:00.119Z,25.47
2022-12-28T15:28:08.713Z,25.52
2022-12-28T15:28:16.882Z,25.57
2022-12-28T15:28:33.620Z,25.66
2022-12-28T15:28:42.023Z,25.71
2022-12-28T15:28:50.394Z,25.75
2022-12-28T15:28:58.794Z,25.79
2022-12-28T15:29:07.156Z,25.84
2022-12-28T15:29:47.575Z,25.92
2022-12-28T15:29:56.150Z,25.96
2022-12-28T15:30:04.928Z,26.00
2022-12-28T15:30:05.096Z,26.03
2022-12-28T15:30:06.435Z,26.07
2022-12-28T15:30:18.900Z,26.14
2022-12-28T15:30:27.378Z,26.17
2022-12-28T15:30:31.037Z,26.21
2022-12-28T15:30:39.291Z,26.24
2022-12-28T15:30:47.701Z,26.27
2022-12-28T15:31:04.468Z,26.33
2022-12-28T15:31:12.954Z,26.36
2022-12-28T15:31:21.248Z,26.39
2022-12-28T15:31:29.655Z,26.42
2022-12-28T15:31:37.980Z,26.45
2022-12-28T15:31:46.508Z,26.48
2022-12-28T15:32:03.248Z,26.53
2022-12-28T15:32:11.458Z,26.55
2022-12-28T15:32:19.939Z,26.58
2022-12-28T15:32:28.205Z,26.60
2022-12-28T15:32:36.595Z,26.62
2022-12-28T15:32:53.338Z,26.67
2022-12-28T15:33:01.702Z,26.69
2022-12-28T15:33:10.073Z,26.72
2022-12-28T15:33:18.487Z,26.74
2022-12-28T15:33:26.837Z,26.76
2022-12-28T15:33:43.589Z,26.80
2022-12-28T15:33:52.108Z,26.82
2022-12-28T15:34:00.357Z,26.84
2022-12-28T15:34:08.857Z,26.86
2022-12-28T15:34:17.096Z,26.88
2022-12-28T15:34:33.830Z,26.92
2022-12-28T15:34:42.318Z,26.93
2022-12-28T15:34:50.611Z,26.95
2022-12-28T15:34:59.028Z,26.97
2022-12-28T15:35:07.354Z,26.99
2022-12-28T15:35:24.167Z,27.02
2022-12-28T15:35:32.505Z,27.04
2022-12-28T15:35:40.975Z,27.05
2022-12-28T15:35:49.256Z,27.07
2022-12-28T15:35:57.727Z,27.08
2022-12-28T15:36:17.702Z,27.11
2022-12-28T15:36:22.758Z,27.13
2022-12-28T15:36:31.175Z,27.14
2022-12-28T15:36:39.500Z,27.16
2022-12-28T15:36:47.930Z,27.17
2022-12-28T15:37:04.627Z,27.20
2022-12-28T15:37:13.003Z,27.22
2022-12-28T15:37:21.398Z,27.23
2022-12-28T15:37:29.852Z,27.24
2022-12-28T15:37:38.122Z,27.26
2022-12-28T15:37:46.693Z,27.27
2022-12-28T15:38:03.402Z,27.30
2022-12-28T15:38:11.646Z,27.31
2022-12-28T15:38:20.047Z,27.32
2022-12-28T15:38:28.397Z,27.33
2022-12-28T15:38:36.798Z,27.34
2022-12-28T15:38:53.544Z,27.36
2022-12-28T15:39:01.894Z,27.37
2022-12-28T15:39:10.295Z,27.38
2022-12-28T15:39:18.719Z,27.39
2022-12-28T15:39:27.052Z,27.40
2022-12-28T15:39:43.792Z,27.41
2022-12-28T15:39:52.295Z,27.42
2022-12-28T15:40:00.542Z,27.43
2022-12-28T15:40:08.989Z,27.44
2022-12-28T15:40:17.305Z,27.45
2022-12-28T15:40:34.039Z,27.46
2022-12-28T15:40:42.440Z,27.47
2022-12-28T15:40:50.817Z,27.48
2022-12-28T15:40:59.193Z,27.48
2022-12-28T15:41:07.592Z,27.49
2022-12-28T15:41:24.420Z,27.50
2022-12-28T15:41:32.688Z,27.51
2022-12-28T15:41:41.235Z,27.51
2022-12-28T15:41:49.463Z,27.52
2022-12-28T15:41:57.937Z,27.53
2022-12-28T15:42:14.605Z,27.54
2022-12-28T15:42:22.938Z,27.55
2022-12-28T15:42:36.508Z,27.56
2022-12-28T15:42:40.834Z,27.57
2022-12-28T15:42:48.112Z,27.57
2022-12-28T15:42:56.461Z,27.58
2022-12-28T15:43:13.310Z,27.59
2022-12-28T15:43:21.596Z,27.60
2022-12-28T15:43:30.109Z,27.61
2022-12-28T15:43:38.339Z,27.61
2022-12-28T15:43:46.842Z,27.62
2022-12-28T15:44:03.578Z,27.63
2022-12-28T15:44:11.913Z,27.64
2022-12-28T15:44:20.256Z,27.64
2022-12-28T15:44:28.609Z,27.65
2022-12-28T15:44:37.011Z,27.65
2022-12-28T15:44:53.770Z,27.67
2022-12-28T15:45:02.151Z,27.67
2022-12-28T15:45:10.478Z,27.68
2022-12-28T15:45:18.984Z,27.68
2022-12-28T15:45:27.293Z,27.69
2022-12-28T15:45:44.001Z,27.70
2022-12-28T15:45:52.502Z,27.71
2022-12-28T15:46:00.759Z,27.71
2022-12-28T15:46:09.244Z,27.72
2022-12-28T15:46:17.555Z,27.72
2022-12-28T15:46:34.306Z,27.73
2022-12-28T15:46:42.726Z,27.74
2022-12-28T15:46:51.111Z,27.75
2022-12-28T15:46:59.516Z,27.75
2022-12-28T15:47:07.875Z,27.76
2022-12-28T15:47:24.657Z,27.77
2022-12-28T15:47:32.925Z,27.78
2022-12-28T15:47:41.404Z,27.78
2022-12-28T15:47:49.648Z,27.79
2022-12-28T15:47:58.045Z,27.80
2022-12-28T15:48:06.463Z,27.80
2022-12-28T15:48:23.198Z,27.81
2022-12-28T15:48:31.543Z,27.82
2022-12-28T15:48:45.710Z,27.82
2022-12-28T15:48:48.296Z,27.83
2022-12-28T15:48:56.732Z,27.83
2022-12-28T15:49:13.517Z,27.84
2022-12-28T15:49:21.797Z,27.85
2022-12-28T15:49:30.319Z,27.85
2022-12-28T15:49:38.547Z,27.86
2022-12-28T15:49:47.001Z,27.87
2022-12-28T15:50:03.873Z,27.88
2022-12-28T15:50:12.069Z,27.88
2022-12-28T15:50:20.466Z,27.89
2022-12-28T15:50:28.815Z,27.90
2022-12-28T15:50:37.190Z,27.90
2022-12-28T15:50:53.945Z,27.91
2022-12-28T15:51:02.422Z,27.91
2022-12-28T15:51:10.714Z,27.92
2022-12-28T15:51:19.187Z,27.92
2022-12-28T15:51:27.463Z,27.93
2022-12-28T15:51:44.213Z,27.94
2022-12-28T15:51:52.619Z,27.94
2022-12-28T15:52:00.762Z,27.94
2022-12-28T15:52:09.435Z,27.95
2022-12-28T15:52:17.772Z,27.95
2022-12-28T15:52:34.507Z,27.96
2022-12-28T15:52:42.896Z,27.96
2022-12-28T15:52:51.334Z,27.97
2022-12-28T15:52:59.661Z,27.97
2022-12-28T15:53:08.178Z,27.97
2022-12-28T15:53:24.938Z,27.97
2022-12-28T15:53:33.157Z,27.98
2022-12-28T15:53:41.660Z,27.98
2022-12-28T15:53:49.906Z,27.98
2022-12-28T15:53:58.311Z,27.98
2022-12-28T15:54:06.672Z,27.99
2022-12-28T15:54:23.408Z,27.99
2022-12-28T15:54:31.809Z,27.99
2022-12-28T15:54:45.319Z,27.99
2022-12-28T15:54:48.580Z,27.99
2022-12-28T15:54:57.003Z,27.99
2022-12-28T15:55:13.883Z,27.99
2022-12-28T15:55:22.064Z,27.99
2022-12-28T15:55:30.580Z,27.99
2022-12-28T15:55:38.805Z,28.00
2022-12-28T15:55:47.226Z,28.00
2022-12-28T15:56:03.952Z,28.00
2022-12-28T15:56:12.312Z,28.00
2022-12-28T15:56:20.676Z,28.00
2022-12-28T15:56:29.057Z,28.00
2022-12-28T15:56:37.450Z,28.01
2022-12-28T15:56:54.197Z,28.01
2022-12-28T15:57:02.726Z,28.01
2022-12-28T15:57:10.948Z,28.02
2022-12-28T15:57:19.450Z,28.02
2022-12-28T15:57:27.715Z,28.02
2022-12-28T15:57:44.480Z,28.02
2022-12-28T15:57:52.886Z,28.03
2022-12-28T15:58:01.220Z,28.03
2022-12-28T15:58:09.626Z,28.03
2022-12-28T15:58:17.972Z,28.03
2022-12-28T15:58:34.768Z,28.03
2022-12-28T15:58:43.094Z,28.03
2022-12-28T15:58:51.600Z,28.03
2022-12-28T15:58:59.850Z,28.03
2022-12-28T15:59:08.406Z,28.04
2022-12-28T15:59:16.592Z,28.04
2022-12-28T15:59:33.370Z,28.04
2022-12-28T15:59:41.769Z,28.04
2022-12-28T15:59:50.116Z,28.04
2022-12-28T15:59:58.516Z,28.04
2022-12-28T16:00:06.907Z,28.04
2022-12-28T16:00:23.617Z,28.05
2022-12-28T16:00:32.088Z,28.05
2022-12-28T16:00:45.695Z,28.05
2022-12-28T16:00:48.798Z,28.05
2022-12-28T16:00:57.433Z,28.05
2022-12-28T16:01:14.200Z,28.05
2022-12-28T16:01:22.475Z,28.05
2022-12-28T16:01:30.832Z,28.06
2022-12-28T16:01:39.246Z,28.06
2022-12-28T16:01:47.819Z,28.06
2022-12-28T16:02:04.447Z,28.06
2022-12-28T16:02:12.821Z,28.06
2022-12-28T16:02:21.175Z,28.07
2022-12-28T16:02:29.512Z,28.07
2022-12-28T16:02:37.922Z,28.07
2022-12-28T16:02:54.529Z,28.07
2022-12-28T16:03:03.026Z,28.07
2022-12-28T16:03:11.263Z,28.07
2022-12-28T16:03:19.717Z,28.07
2022-12-28T16:03:27.995Z,28.07
2022-12-28T16:03:44.657Z,28.08
2022-12-28T16:03:53.113Z,28.08
2022-12-28T16:04:01.434Z,28.08
2022-12-28T16:04:09.817Z,28.08
2022-12-28T16:04:18.207Z,28.08
2022-12-28T16:04:26.588Z,28.08
2022-12-28T16:04:43.313Z,28.08
2022-12-28T16:04:51.846Z,28.08
2022-12-28T16:05:00.060Z,28.08
2022-12-28T16:05:08.579Z,28.08
2022-12-28T16:05:16.832Z,28.08
2022-12-28T16:05:33.589Z,28.07
2022-12-28T16:05:41.976Z,28.07
2022-12-28T16:05:50.326Z,28.07
2022-12-28T16:05:58.703Z,28.07
2022-12-28T16:06:07.078Z,28.07
2022-12-28T16:06:23.904Z,28.07
2022-12-28T16:06:32.206Z,28.07
2022-12-28T16:06:44.704Z,28.07
2022-12-28T16:06:48.981Z,28.07
2022-12-28T16:06:57.502Z,28.07
2022-12-28T16:07:14.157Z,28.07
2022-12-28T16:07:22.501Z,28.07
2022-12-28T16:07:30.875Z,28.07
2022-12-28T16:07:39.222Z,28.07
2022-12-28T16:07:47.600Z,28.07
2022-12-28T16:08:04.376Z,28.08
2022-12-28T16:08:12.769Z,28.08
2022-12-28T16:08:21.120Z,28.08
2022-12-28T16:08:29.607Z,28.08
2022-12-28T16:08:37.872Z,28.08
2022-12-28T16:08:54.658Z,28.08
2022-12-28T16:09:03.051Z,28.08
2022-12-28T16:09:11.380Z,28.08
2022-12-28T16:09:19.794Z,28.08
2022-12-28T16:09:28.145Z,28.08
2022-12-28T16:09:36.542Z,28.08
2022-12-28T16:09:53.270Z,28.08
2022-12-28T16:10:01.793Z,28.08
2022-12-28T16:10:10.017Z,28.08
2022-12-28T16:10:18.490Z,28.08
2022-12-28T16:10:26.771Z,28.08
2022-12-28T16:10:43.516Z,28.09
2022-12-28T16:10:52.038Z,28.09
2022-12-28T16:11:00.264Z,28.09
2022-12-28T16:11:08.693Z,28.09
2022-12-28T16:11:17.037Z,28.09
2022-12-28T16:11:33.788Z,28.09
2022-12-28T16:11:42.172Z,28.09
2022-12-28T16:11:55.095Z,28.09
2022-12-28T16:11:58.914Z,28.09
2022-12-28T16:12:07.373Z,28.09
2022-12-28T16:12:24.159Z,28.10
2022-12-28T16:12:32.445Z,28.10
2022-12-28T16:12:40.946Z,28.10
2022-12-28T16:12:49.189Z,28.10
2022-12-28T16:12:57.621Z,28.10
2022-12-28T16:13:14.334Z,28.10
2022-12-28T16:13:22.683Z,28.10
2022-12-28T16:13:31.089Z,28.10
2022-12-28T16:13:39.445Z,28.10
2022-12-28T16:13:47.807Z,28.10
2022-12-28T16:14:04.585Z,28.10
2022-12-28T16:14:13.131Z,28.10
2022-12-28T16:14:21.347Z,28.10
2022-12-28T16:14:29.859Z,28.11
2022-12-28T16:14:38.084Z,28.10
2022-12-28T16:14:46.612Z,28.11
2022-12-28T16:15:03.256Z,28.11
2022-12-28T16:15:11.633Z,28.10
2022-12-28T16:15:20.004Z,28.10
2022-12-28T16:15:28.358Z,28.10
2022-12-28T16:15:36.735Z,28.10
2022-12-28T16:15:53.477Z,28.10
2022-12-28T16:16:01.963Z,28.10
2022-12-28T16:16:10.328Z,28.10
2022-12-28T16:16:18.784Z,28.10
2022-12-28T16:16:27.058Z,28.11
2022-12-28T16:16:43.907Z,28.10
2022-12-28T16:16:52.315Z,28.10
2022-12-28T16:17:00.594Z,28.10
2022-12-28T16:17:08.906Z,28.10
2022-12-28T16:17:17.255Z,28.10
2022-12-28T16:17:33.999Z,28.10
2022-12-28T16:17:52.971Z,28.10
2022-12-28T16:17:57.020Z,28.10
2022-12-28T16:17:59.123Z,28.10
2022-12-28T16:18:07.645Z,28.10
2022-12-28T16:18:24.418Z,28.10
2022-12-28T16:18:32.678Z,28.10
2022-12-28T16:18:41.147Z,28.10
2022-12-28T16:18:49.430Z,28.10
2022-12-28T16:18:57.820Z,28.10
2022-12-28T16:19:14.567Z,28.11
2022-12-28T16:19:22.908Z,28.11
2022-12-28T16:19:31.293Z,28.11
2022-12-28T16:19:39.669Z,28.11
2022-12-28T16:19:48.047Z,28.11
2022-12-28T16:19:56.517Z,28.11
2022-12-28T16:20:13.317Z,28.11
2022-12-28T16:20:21.540Z,28.11
2022-12-28T16:20:30.050Z,28.11
2022-12-28T16:20:38.297Z,28.11
2022-12-28T16:20:46.739Z,28.11
2022-12-28T16:21:03.489Z,28.12
2022-12-28T16:21:11.826Z,28.12
2022-12-28T16:21:20.189Z,28.12
2022-12-28T16:21:28.564Z,28.12
2022-12-28T16:21:36.940Z,28.13
2022-12-28T16:21:53.711Z,28.13
2022-12-28T16:22:02.214Z,28.13
2022-12-28T16:22:10.441Z,28.13
2022-12-28T16:22:18.932Z,28.14
2022-12-28T16:22:27.210Z,28.14
2022-12-28T16:22:43.968Z,28.15
2022-12-28T16:22:52.357Z,28.15
2022-12-28T16:23:00.709Z,28.15
2022-12-28T16:23:09.139Z,28.15
2022-12-28T16:23:17.458Z,28.16
2022-12-28T16:23:34.211Z,28.16
2022-12-28T16:23:42.606Z,28.16
2022-12-28T16:23:51.060Z,28.16
2022-12-28T16:23:59.361Z,28.16
2022-12-28T16:24:07.912Z,28.16
2022-12-28T16:24:24.610Z,28.16
2022-12-28T16:24:32.862Z,28.16
2022-12-28T16:24:41.280Z,28.16
2022-12-28T16:24:49.620Z,28.16
2022-12-28T16:24:58.004Z,28.16
2022-12-28T16:25:14.752Z,28.16
2022-12-28T16:25:23.142Z,28.16
2022-12-28T16:25:31.504Z,28.16
2022-12-28T16:25:39.956Z,28.16
2022-12-28T16:25:48.257Z,28.16
2022-12-28T16:25:56.779Z,28.16
2022-12-28T16:26:13.558Z,28.16
2022-12-28T16:26:21.751Z,28.16
2022-12-28T16:26:30.202Z,28.16
2022-12-28T16:26:38.504Z,28.16
2022-12-28T16:26:46.909Z,28.16
2022-12-28T16:27:03.706Z,28.15
2022-12-28T16:27:12.021Z,28.15
2022-12-28T16:27:20.399Z,28.15
2022-12-28T16:27:28.780Z,28.15
2022-12-28T16:27:37.175Z,28.15
2022-12-28T16:27:53.896Z,28.15
2022-12-28T16:28:02.445Z,28.14
2022-12-28T16:28:10.671Z,28.15
2022-12-28T16:28:19.123Z,28.15
2022-12-28T16:28:27.430Z,28.15
2022-12-28T16:28:44.168Z,28.15
2022-12-28T16:28:52.601Z,28.15
2022-12-28T16:29:00.937Z,28.15
2022-12-28T16:29:09.292Z,28.15
2022-12-28T16:29:17.674Z,28.15
2022-12-28T16:29:34.518Z,28.14
2022-12-28T16:29:42.824Z,28.15
2022-12-28T16:29:56.879Z,28.15
2022-12-28T16:29:59.566Z,28.15
2022-12-28T16:30:08.065Z,28.15
2022-12-28T16:30:24.716Z,28.16
2022-12-28T16:30:33.065Z,28.16
2022-12-28T16:30:41.471Z,28.16
2022-12-28T16:30:49.839Z,28.16
2022-12-28T16:30:58.213Z,28.16
2022-12-28T16:31:06.569Z,28.16
2022-12-28T16:31:23.462Z,28.16
2022-12-28T16:31:31.752Z,28.16
2022-12-28T16:31:40.267Z,28.17
2022-12-28T16:31:48.512Z,28.17
2022-12-28T16:31:57.013Z,28.17
2022-12-28T16:32:13.662Z,28.17
2022-12-28T16:32:21.969Z,28.17
2022-12-28T16:32:30.360Z,28.17
2022-12-28T16:32:38.815Z,28.17
2022-12-28T16:32:47.110Z,28.18
2022-12-28T16:33:03.858Z,28.18
2022-12-28T16:33:12.236Z,28.18
2022-12-28T16:33:20.622Z,28.18
2022-12-28T16:33:29.060Z,28.18
2022-12-28T16:33:37.383Z,28.18
2022-12-28T16:33:54.132Z,28.18
2022-12-28T16:34:02.606Z,28.18
2022-12-28T16:34:10.861Z,28.18
2022-12-28T16:34:19.256Z,28.18
2022-12-28T16:34:27.664Z,28.18
2022-12-28T16:34:44.380Z,28.18
2022-12-28T16:34:52.754Z,28.18
2022-12-28T16:35:01.126Z,28.18
2022-12-28T16:35:09.513Z,28.18
2022-12-28T16:35:17.979Z,28.18
2022-12-28T16:35:34.752Z,28.18
2022-12-28T16:35:43.002Z,28.18
2022-12-28T16:35:57.627Z,28.18
2022-12-28T16:36:00.126Z,28.17
2022-12-28T16:36:08.234Z,28.17
2022-12-28T16:36:16.526Z,28.17
2022-12-28T16:36:33.300Z,28.17
2022-12-28T16:36:41.685Z,28.17
2022-12-28T16:36:50.044Z,28.17
2022-12-28T16:36:58.425Z,28.17
2022-12-28T16:37:06.818Z,28.17
2022-12-28T16:37:23.659Z,28.17
2022-12-28T16:37:31.927Z,28.17
2022-12-28T16:37:40.447Z,28.17
2022-12-28T16:37:48.676Z,28.17
2022-12-28T16:37:57.171Z,28.16
2022-12-28T16:38:13.822Z,28.15
2022-12-28T16:38:22.177Z,28.15
2022-12-28T16:38:30.571Z,28.15
2022-12-28T16:38:38.921Z,28.15
2022-12-28T16:38:47.319Z,28.15
2022-12-28T16:39:04.072Z,28.15
2022-12-28T16:39:12.532Z,28.14
2022-12-28T16:39:20.817Z,28.14
2022-12-28T16:39:29.318Z,28.14
2022-12-28T16:39:37.567Z,28.14
2022-12-28T16:39:54.318Z,28.14
2022-12-28T16:40:02.760Z,28.14
2022-12-28T16:40:11.075Z,28.15
2022-12-28T16:40:19.489Z,28.15
2022-12-28T16:40:27.851Z,28.15
2022-12-28T16:40:44.595Z,28.15
2022-12-28T16:40:52.963Z,28.15
2022-12-28T16:41:01.363Z,28.15
2022-12-28T16:41:09.741Z,28.15
2022-12-28T16:41:18.191Z,28.15
2022-12-28T16:41:31.361Z,28.15
2022-12-28T16:41:43.218Z,28.15
2022-12-28T16:41:51.688Z,28.16
2022-12-28T16:42:00.007Z,28.16
2022-12-28T16:42:08.385Z,28.16
2022-12-28T16:42:16.765Z,28.16
2022-12-28T16:42:33.485Z,28.17
2022-12-28T16:42:41.888Z,28.17
2022-12-28T16:42:50.239Z,28.17
2022-12-28T16:42:58.666Z,28.18
2022-12-28T16:43:07.071Z,28.18
2022-12-28T16:43:23.933Z,28.19
2022-12-28T16:43:32.134Z,28.19
2022-12-28T16:43:40.638Z,28.19
2022-12-28T16:43:48.918Z,28.20
2022-12-28T16:43:57.306Z,28.20
2022-12-28T16:44:14.041Z,28.20
2022-12-28T16:44:22.380Z,28.21
2022-12-28T16:44:30.792Z,28.21
2022-12-28T16:44:39.130Z,28.21
2022-12-28T16:44:47.532Z,28.21
2022-12-28T16:45:04.278Z,28.21
2022-12-28T16:45:12.780Z,28.22
2022-12-28T16:45:21.029Z,28.22
2022-12-28T16:45:29.594Z,28.22
2022-12-28T16:45:37.831Z,28.22
2022-12-28T16:45:54.570Z,28.23
2022-12-28T16:46:02.971Z,28.23
2022-12-28T16:46:11.390Z,28.23
2022-12-28T16:46:19.862Z,28.23
2022-12-28T16:46:28.145Z,28.23
2022-12-28T16:46:36.459Z,28.24
2022-12-28T16:46:53.173Z,28.24
2022-12-28T16:47:01.656Z,28.24
2022-12-28T16:47:09.923Z,28.24
2022-12-28T16:47:18.451Z,28.24
2022-12-28T16:47:26.709Z,28.24
2022-12-28T16:47:45.177Z,28.24
2022-12-28T16:47:51.843Z,28.24
2022-12-28T16:48:00.197Z,28.24
2022-12-28T16:48:08.597Z,28.24
2022-12-28T16:48:16.954Z,28.25
2022-12-28T16:48:33.696Z,28.25
2022-12-28T16:48:42.096Z,28.25
2022-12-28T16:48:50.519Z,28.25
2022-12-28T16:48:58.823Z,28.25
2022-12-28T16:49:07.367Z,28.25
2022-12-28T16:49:24.120Z,28.25
2022-12-28T16:49:32.351Z,28.24
2022-12-28T16:49:40.768Z,28.24
2022-12-28T16:49:49.093Z,28.24
2022-12-28T16:49:57.491Z,28.24
2022-12-28T16:50:14.243Z,28.23
2022-12-28T16:50:22.597Z,28.23
2022-12-28T16:50:31.004Z,28.23
2022-12-28T16:50:39.365Z,28.23
2022-12-28T16:50:47.745Z,28.22
2022-12-28T16:51:04.488Z,28.22
2022-12-28T16:51:13.013Z,28.22
2022-12-28T16:51:21.241Z,28.21
2022-12-28T16:51:29.744Z,28.21
2022-12-28T16:51:37.988Z,28.21
2022-12-28T16:51:54.737Z,28.20
2022-12-28T16:52:03.162Z,28.20
2022-12-28T16:52:11.520Z,28.20
2022-12-28T16:52:19.912Z,28.20
2022-12-28T16:52:28.260Z,28.19
2022-12-28T16:52:36.637Z,28.19
2022-12-28T16:52:53.386Z,28.19
2022-12-28T16:53:01.891Z,28.18
2022-12-28T16:53:10.146Z,28.18
2022-12-28T16:53:24.354Z,28.18
2022-12-28T16:53:26.884Z,28.18
2022-12-28T16:53:43.657Z,28.19
2022-12-28T16:53:52.057Z,28.19
2022-12-28T16:54:00.404Z,28.19
2022-12-28T16:54:08.783Z,28.19
2022-12-28T16:54:17.189Z,28.19
2022-12-28T16:54:33.955Z,28.20
2022-12-28T16:54:42.281Z,28.20
2022-12-28T16:54:50.813Z,28.20
2022-12-28T16:54:59.054Z,28.19
2022-12-28T16:55:07.578Z,28.19
2022-12-28T16:55:24.302Z,28.19
2022-12-28T16:55:32.559Z,28.19
2022-12-28T16:55:40.973Z,28.18
2022-12-28T16:55:49.301Z,28.18
2022-12-28T16:55:57.700Z,28.18
2022-12-28T16:56:14.458Z,28.18
2022-12-28T16:56:22.813Z,28.18
2022-12-28T16:56:31.201Z,28.18
2022-12-28T16:56:39.676Z,28.19
2022-12-28T16:56:47.959Z,28.19
2022-12-28T16:56:56.490Z,28.19
2022-12-28T16:57:13.226Z,28.19
2022-12-28T16:57:21.461Z,28.19
2022-12-28T16:57:29.847Z,28.19
2022-12-28T16:57:38.197Z,28.19
2022-12-28T16:57:46.599Z,28.19
2022-12-28T16:58:03.373Z,28.19
2022-12-28T16:58:11.736Z,28.19
2022-12-28T16:58:20.095Z,28.18
2022-12-28T16:58:28.520Z,28.19
2022-12-28T16:58:36.845Z,28.19
2022-12-28T16:58:53.593Z,28.19
2022-12-28T16:59:02.108Z,28.19
2022-12-28T16:59:10.343Z,28.19
2022-12-28T16:59:18.792Z,28.19
2022-12-28T16:59:27.092Z,28.19
2022-12-28T16:59:43.866Z,28.19
2022-12-28T16:59:52.270Z,28.19
2022-12-28T17:00:00.746Z,28.19
2022-12-28T17:00:08.997Z,28.19
2022-12-28T17:00:17.368Z,28.19
2022-12-28T17:00:34.214Z,28.19
2022-12-28T17:00:42.576Z,28.19
2022-12-28T17:00:51.045Z,28.19
2022-12-28T17:00:59.349Z,28.19
2022-12-28T17:01:07.979Z,28.19
2022-12-28T17:01:24.540Z,28.19
2022-12-28T17:01:32.931Z,28.19
2022-12-28T17:01:41.284Z,28.19
2022-12-28T17:01:49.798Z,28.19
2022-12-28T17:01:58.214Z,28.19
2022-12-28T17:02:15.036Z,28.19
2022-12-28T17:02:23.329Z,28.19
2022-12-28T17:02:31.678Z,28.19
2022-12-28T17:02:40.242Z,28.19
2022-12-28T17:02:48.264Z,28.20
2022-12-28T17:02:56.806Z,28.20
2022-12-28T17:03:13.407Z,28.20
2022-12-28T17:03:21.815Z,28.20
2022-12-28T17:03:30.134Z,28.20
2022-12-28T17:03:38.551Z,28.20
2022-12-28T17:03:46.874Z,28.20
2022-12-28T17:04:04.535Z,28.21
2022-12-28T17:04:12.001Z,28.21
2022-12-28T17:04:20.312Z,28.21
2022-12-28T17:04:28.791Z,28.21
2022-12-28T17:04:37.056Z,28.21
2022-12-28T17:04:53.813Z,28.21
2022-12-28T17:05:02.264Z,28.21
2022-12-28T17:05:10.592Z,28.21
2022-12-28T17:05:19.004Z,28.21
2022-12-28T17:05:27.332Z,28.21
2022-12-28T17:05:44.078Z,28.21
2022-12-28T17:05:52.535Z,28.20
2022-12-28T17:06:00.825Z,28.20
2022-12-28T17:06:09.208Z,28.20
2022-12-28T17:06:17.652Z,28.20
2022-12-28T17:06:34.481Z,28.19
2022-12-28T17:06:42.730Z,28.19
2022-12-28T17:06:51.274Z,28.18
2022-12-28T17:06:59.479Z,28.18
2022-12-28T17:07:07.937Z,28.18
2022-12-28T17:07:24.628Z,28.17
2022-12-28T17:07:32.976Z,28.17
2022-12-28T17:07:41.352Z,28.17
2022-12-28T17:07:49.725Z,28.18
2022-12-28T17:07:58.144Z,28.18
2022-12-28T17:08:06.551Z,28.18
2022-12-28T17:08:23.369Z,28.18
2022-12-28T17:08:31.625Z,28.18
2022-12-28T17:08:40.144Z,28.19
2022-12-28T17:08:48.371Z,28.19
2022-12-28T17:08:56.836Z,28.19
2022-12-28T17:09:13.520Z,28.19
2022-12-28T17:09:21.885Z,28.19
2022-12-28T17:09:30.273Z,28.19
2022-12-28T17:09:38.655Z,28.19
2022-12-28T17:09:50.257Z,28.19
2022-12-28T17:10:03.767Z,28.19
2022-12-28T17:10:12.242Z,28.18
2022-12-28T17:10:20.530Z,28.18
2022-12-28T17:10:29.067Z,28.18
2022-12-28T17:10:37.265Z,28.18
2022-12-28T17:10:54.039Z,28.18
2022-12-28T17:11:02.447Z,28.18
2022-12-28T17:11:10.796Z,28.18
2022-12-28T17:11:19.209Z,28.18
2022-12-28T17:11:27.548Z,28.18
2022-12-28T17:11:44.297Z,28.18
2022-12-28T17:11:52.696Z,28.18
2022-12-28T17:12:01.116Z,28.18
2022-12-28T17:12:09.440Z,28.18
2022-12-28T17:12:17.935Z,28.18
2022-12-28T17:12:34.716Z,28.18
2022-12-28T17:12:42.959Z,28.18
2022-12-28T17:12:51.371Z,28.18
2022-12-28T17:12:59.686Z,28.19
2022-12-28T17:13:08.083Z,28.19
2022-12-28T17:13:16.436Z,28.19
2022-12-28T17:13:33.189Z,28.19
2022-12-28T17:13:41.585Z,28.19
2022-12-28T17:13:49.999Z,28.20
2022-12-28T17:13:58.382Z,28.20
2022-12-28T17:14:06.822Z,28.20
2022-12-28T17:14:37.314Z,28.20
2022-12-28T17:14:38.989Z,28.20
2022-12-28T17:14:40.341Z,28.20
2022-12-28T17:14:48.590Z,28.20
2022-12-28T17:15:00.595Z,28.21
2022-12-28T17:15:13.758Z,28.21
2022-12-28T17:15:22.114Z,28.21
2022-12-28T17:15:30.485Z,28.21
2022-12-28T17:15:38.854Z,28.21
2022-12-28T17:15:47.228Z,28.21
2022-12-28T17:16:04.042Z,28.21
2022-12-28T17:16:12.582Z,28.20
2022-12-28T17:16:20.821Z,28.20
2022-12-28T17:16:29.385Z,28.20
2022-12-28T17:16:37.648Z,28.19
2022-12-28T17:16:54.310Z,28.19
2022-12-28T17:16:59.993Z,28.19
2022-12-28T17:17:10.686Z,28.19
2022-12-28T17:17:19.100Z,28.19
2022-12-28T17:17:27.450Z,28.19
2022-12-28T17:17:44.225Z,28.19
2022-12-28T17:17:52.580Z,28.19
2022-12-28T17:18:01.047Z,28.19
2022-12-28T17:18:09.323Z,28.19
2022-12-28T17:18:17.846Z,28.19
2022-12-28T17:18:34.598Z,28.19
2022-12-28T17:18:42.821Z,28.19
2022-12-28T17:18:51.349Z,28.19
2022-12-28T17:18:59.603Z,28.19
2022-12-28T17:19:07.993Z,28.19
2022-12-28T17:19:21.798Z,28.19
2022-12-28T17:19:32.371Z,28.20
2022-12-28T17:19:40.996Z,28.20
2022-12-28T17:19:49.415Z,28.20
2022-12-28T17:19:57.742Z,28.20
2022-12-28T17:20:14.511Z,28.20
2022-12-28T17:20:23.067Z,28.20
2022-12-28T17:20:31.266Z,28.19
2022-12-28T17:20:39.765Z,28.19
2022-12-28T17:20:48.088Z,28.19
2022-12-28T17:21:00.469Z,28.19
2022-12-28T17:21:13.188Z,28.20
2022-12-28T17:21:21.514Z,28.20
2022-12-28T17:21:29.901Z,28.20
2022-12-28T17:21:38.268Z,28.20
2022-12-28T17:21:46.691Z,28.20
2022-12-28T17:22:03.412Z,28.20
2022-12-28T17:22:11.912Z,28.20
2022-12-28T17:22:20.161Z,28.20
2022-12-28T17:22:28.686Z,28.20
2022-12-28T17:22:36.934Z,28.20
2022-12-28T17:22:53.659Z,28.20
2022-12-28T17:23:02.091Z,28.21
2022-12-28T17:23:10.415Z,28.21
2022-12-28T17:23:18.836Z,28.21
2022-12-28T17:23:27.184Z,28.21
2022-12-28T17:23:43.983Z,28.21
2022-12-28T17:23:52.304Z,28.21
2022-12-28T17:24:00.792Z,28.21
2022-12-28T17:24:09.060Z,28.21
2022-12-28T17:24:17.556Z,28.21
2022-12-28T17:24:34.302Z,28.21
2022-12-28T17:24:42.609Z,28.21
2022-12-28T17:24:50.979Z,28.21
2022-12-28T17:24:59.346Z,28.21
2022-12-28T17:25:07.730Z,28.21
2022-12-28T17:25:24.463Z,28.22
2022-12-28T17:25:32.834Z,28.22
2022-12-28T17:25:41.208Z,28.22
2022-12-28T17:25:49.707Z,28.22
2022-12-28T17:25:57.977Z,28.23
2022-12-28T17:26:06.523Z,28.23